LVCTD SADF-ZZZZ
Flight info
| Callsign | LVCTD |
|---|---|
| Flight time | N/A |
| Altitude | 1000 |
| Route | DCT |
| Aircraft | B429/L-SDVG/S |
Departure
| Time | 2026-05-05 01:43 |
|---|---|
| Airport | San Fernando Airport (SADF) |
Arrival
| Time | N/A |
|---|---|
| Airport | ZZZZ |
| Time | Latitude | Longitude | Altitude | Speed | Heading |
|---|---|---|---|---|---|
| 2026-05-05 01:39 | -34.45031 | -58.58152 | 13 ft | 0 kts | 240° |
| 2026-05-05 01:41 | -34.45031 | -58.58153 | 14 ft | 1 kts | 240° |
| 2026-05-05 01:42 | -34.45055 | -58.58280 | 67 ft | 31 kts | 258° |
| 2026-05-05 01:42 | -34.45202 | -58.58496 | 174 ft | 48 kts | 161° |
| 2026-05-05 01:42 | -34.45661 | -58.58120 | 297 ft | 97 kts | 133° |
| 2026-05-05 01:42 | -34.46199 | -58.57513 | 506 ft | 113 kts | 137° |
| 2026-05-05 01:43 | -34.46895 | -58.56921 | 611 ft | 128 kts | 149° |
| 2026-05-05 01:43 | -34.47718 | -58.56485 | 702 ft | 136 kts | 155° |
| 2026-05-05 01:43 | -34.48601 | -58.56056 | 805 ft | 136 kts | 156° |
| 2026-05-05 01:43 | -34.49406 | -58.55445 | 884 ft | 138 kts | 130° |
| 2026-05-05 01:44 | -34.49963 | -58.54508 | 961 ft | 139 kts | 122° |
| 2026-05-05 01:44 | -34.50545 | -58.53514 | 926 ft | 145 kts | 123° |
| 2026-05-05 01:44 | -34.51102 | -58.52506 | 987 ft | 142 kts | 123° |
| 2026-05-05 01:44 | -34.51810 | -58.51609 | 888 ft | 152 kts | 139° |
| 2026-05-05 01:45 | -34.52664 | -58.50889 | 908 ft | 148 kts | 146° |
| 2026-05-05 01:45 | -34.53496 | -58.50202 | 965 ft | 144 kts | 139° |
| 2026-05-05 01:45 | -34.54076 | -58.49256 | 1065 ft | 138 kts | 108° |
| 2026-05-05 01:45 | -34.54314 | -58.48116 | 1114 ft | 139 kts | 99° |
| 2026-05-05 01:46 | -34.54529 | -58.46964 | 1117 ft | 141 kts | 101° |
| 2026-05-05 01:46 | -34.54772 | -58.45841 | 1134 ft | 135 kts | 108° |
| 2026-05-05 01:46 | -34.55174 | -58.44796 | 1085 ft | 136 kts | 118° |
| 2026-05-05 01:46 | -34.55653 | -58.43831 | 1081 ft | 133 kts | 122° |
| 2026-05-05 01:47 | -34.56148 | -58.42911 | 1029 ft | 126 kts | 119° |
| 2026-05-05 01:47 | -34.56527 | -58.42011 | 964 ft | 111 kts | 117° |
| 2026-05-05 01:47 | -34.56801 | -58.41208 | 833 ft | 95 kts | 91° |
| 2026-05-05 01:47 | -34.56888 | -58.40617 | 792 ft | 52 kts | 117° |
| 2026-05-05 01:48 | -34.57136 | -58.40330 | 570 ft | 48 kts | 150° |
| 2026-05-05 01:48 | -34.57291 | -58.40396 | 433 ft | 40 kts | 314° |
| 2026-05-05 01:48 | -34.57064 | -58.40484 | 371 ft | 27 kts | 79° |
| 2026-05-05 01:48 | -34.57180 | -58.40272 | 245 ft | 39 kts | 142° |
| 2026-05-05 01:49 | -34.57262 | -58.40108 | 196 ft | 19 kts | 13° |
| 2026-05-05 01:49 | -34.57211 | -58.40142 | 69 ft | 9 kts | 210° |
| 2026-05-05 01:49 | -34.57222 | -58.40148 | 52 ft | 3 kts | 67° |
| 2026-05-05 01:49 | -34.57240 | -58.40120 | 39 ft | 6 kts | 138° |
| 2026-05-05 01:50 | -34.57258 | -58.40105 | 24 ft | 0 kts | 160° |
| 2026-05-05 01:51 | -34.57263 | -58.40105 | 27 ft | 3 kts | 174° |
| 2026-05-05 01:51 | -34.57265 | -58.40128 | 156 ft | 10 kts | 185° |
| 2026-05-05 01:51 | -34.57262 | -58.40152 | 362 ft | 11 kts | 213° |
| 2026-05-05 01:52 | -34.57641 | -58.40202 | 515 ft | 90 kts | 181° |
| 2026-05-05 01:52 | -34.58324 | -58.40505 | 763 ft | 119 kts | 213° |
| 2026-05-05 01:52 | -34.59096 | -58.40935 | 1045 ft | 128 kts | 194° |
| 2026-05-05 01:52 | -34.59995 | -58.41352 | 1103 ft | 145 kts | 206° |
| 2026-05-05 01:53 | -34.60916 | -58.41887 | 1174 ft | 151 kts | 206° |
| 2026-05-05 01:53 | -34.61887 | -58.42453 | 1204 ft | 150 kts | 204° |
| 2026-05-05 01:53 | -34.62845 | -58.42937 | 1211 ft | 149 kts | 203° |
| 2026-05-05 01:53 | -34.63778 | -58.43431 | 1277 ft | 145 kts | 204° |
| 2026-05-05 01:54 | -34.64698 | -58.43882 | 1408 ft | 139 kts | 202° |
| 2026-05-05 01:54 | -34.65584 | -58.44319 | 1517 ft | 138 kts | 205° |
| 2026-05-05 01:54 | -34.66450 | -58.44849 | 1591 ft | 141 kts | 208° |
| 2026-05-05 01:54 | -34.67371 | -58.45392 | 1599 ft | 142 kts | 204° |
| 2026-05-05 01:55 | -34.68296 | -58.45932 | 1521 ft | 148 kts | 208° |
| 2026-05-05 01:55 | -34.69127 | -58.46521 | 1684 ft | 128 kts | 209° |
| 2026-05-05 01:55 | -34.69836 | -58.47080 | 1764 ft | 130 kts | 217° |
| 2026-05-05 01:55 | -34.70646 | -58.47775 | 1517 ft | 142 kts | 206° |
| 2026-05-05 01:56 | -34.71532 | -58.48269 | 1413 ft | 137 kts | 206° |
| 2026-05-05 01:56 | -34.72322 | -58.48810 | 1410 ft | 126 kts | 210° |
| 2026-05-05 01:56 | -34.73093 | -58.49337 | 1380 ft | 129 kts | 207° |
| 2026-05-05 01:56 | -34.73900 | -58.49844 | 1344 ft | 130 kts | 204° |
| 2026-05-05 01:57 | -34.74720 | -58.50277 | 1307 ft | 127 kts | 201° |
| 2026-05-05 01:57 | -34.75537 | -58.50674 | 1225 ft | 124 kts | 198° |
| 2026-05-05 01:57 | -34.76312 | -58.51001 | 1254 ft | 112 kts | 199° |
| 2026-05-05 01:57 | -34.77035 | -58.51287 | 1239 ft | 111 kts | 201° |
| 2026-05-05 01:58 | -34.77741 | -58.51633 | 1136 ft | 108 kts | 202° |
| 2026-05-05 01:58 | -34.78434 | -58.51959 | 979 ft | 99 kts | 201° |
| 2026-05-05 01:58 | -34.78989 | -58.52245 | 754 ft | 77 kts | 205° |
| 2026-05-05 01:58 | -34.79431 | -58.52515 | 478 ft | 71 kts | 217° |
| 2026-05-05 01:59 | -34.79762 | -58.52800 | 257 ft | 47 kts | 225° |
| 2026-05-05 01:59 | -34.79930 | -58.52992 | 128 ft | 20 kts | 227° |
| 2026-05-05 01:59 | -34.79985 | -58.53066 | 71 ft | 1 kts | 228° |
| 2026-05-05 01:59 | -34.79995 | -58.53080 | 65 ft | 0 kts | 233° |
| 2026-05-05 02:01 | -34.79996 | -58.53081 | 68 ft | 2 kts | 248° |
| 2026-05-05 02:01 | -34.79983 | -58.53101 | 133 ft | 10 kts | 342° |
| 2026-05-05 02:01 | -34.79816 | -58.53075 | 360 ft | 50 kts | 356° |
| 2026-05-05 02:02 | -34.79259 | -58.53112 | 510 ft | 100 kts | 350° |
| 2026-05-05 02:02 | -34.78520 | -58.53188 | 769 ft | 108 kts | 355° |
| 2026-05-05 02:02 | -34.77732 | -58.53196 | 971 ft | 118 kts | 356° |
| 2026-05-05 02:02 | -34.76866 | -58.53292 | 1041 ft | 132 kts | 349° |
| 2026-05-05 02:03 | -34.75927 | -58.53504 | 1038 ft | 141 kts | 349° |
| 2026-05-05 02:03 | -34.74948 | -58.53731 | 1029 ft | 145 kts | 349° |
| 2026-05-05 02:03 | -34.73935 | -58.53954 | 1025 ft | 148 kts | 350° |
| 2026-05-05 02:03 | -34.72912 | -58.54151 | 1027 ft | 150 kts | 351° |
| 2026-05-05 02:04 | -34.71867 | -58.54318 | 1027 ft | 151 kts | 353° |
| 2026-05-05 02:04 | -34.70882 | -58.54488 | 1096 ft | 132 kts | 349° |
| 2026-05-05 02:04 | -34.69980 | -58.54707 | 1063 ft | 130 kts | 345° |
| 2026-05-05 02:04 | -34.69082 | -58.54970 | 1033 ft | 133 kts | 348° |
| 2026-05-05 02:05 | -34.68169 | -58.55149 | 1037 ft | 131 kts | 350° |
| 2026-05-05 02:05 | -34.67265 | -58.55362 | 1045 ft | 131 kts | 346° |
| 2026-05-05 02:05 | -34.66410 | -58.55648 | 1041 ft | 125 kts | 341° |
| 2026-05-05 02:05 | -34.65583 | -58.55976 | 1027 ft | 128 kts | 344° |
| 2026-05-05 02:06 | -34.64699 | -58.56144 | 1042 ft | 126 kts | 353° |
| 2026-05-05 02:06 | -34.63866 | -58.56333 | 1045 ft | 118 kts | 345° |
| 2026-05-05 02:06 | -34.63080 | -58.56609 | 1028 ft | 118 kts | 345° |
| 2026-05-05 02:06 | -34.62249 | -58.56797 | 1031 ft | 123 kts | 352° |
| 2026-05-05 02:07 | -34.61407 | -58.56929 | 1033 ft | 120 kts | 345° |
| 2026-05-05 02:07 | -34.60605 | -58.57208 | 1038 ft | 120 kts | 341° |
| 2026-05-05 02:07 | -34.59810 | -58.57533 | 1036 ft | 121 kts | 340° |
| 2026-05-05 02:07 | -34.58991 | -58.57858 | 1027 ft | 127 kts | 341° |
| 2026-05-05 02:08 | -34.58129 | -58.58127 | 1031 ft | 126 kts | 346° |
| 2026-05-05 02:08 | -34.57270 | -58.58377 | 1023 ft | 131 kts | 345° |
| 2026-05-05 02:08 | -34.56359 | -58.58630 | 1028 ft | 134 kts | 347° |
| 2026-05-05 02:08 | -34.55477 | -58.58850 | 1040 ft | 125 kts | 347° |
| 2026-05-05 02:09 | -34.54610 | -58.59069 | 1022 ft | 129 kts | 349° |
| 2026-05-05 02:09 | -34.53719 | -58.59217 | 1032 ft | 128 kts | 353° |
| 2026-05-05 02:09 | -34.52841 | -58.59352 | 1041 ft | 123 kts | 352° |
| 2026-05-05 02:09 | -34.51976 | -58.59478 | 1031 ft | 127 kts | 355° |
| 2026-05-05 02:10 | -34.51070 | -58.59488 | 1004 ft | 129 kts | 358° |
| 2026-05-05 02:10 | -34.50217 | -58.59561 | 1069 ft | 122 kts | 352° |
| 2026-05-05 02:10 | -34.49361 | -58.59777 | 1024 ft | 123 kts | 348° |
| 2026-05-05 02:10 | -34.48527 | -58.59885 | 997 ft | 116 kts | 358° |
| 2026-05-05 02:11 | -34.47710 | -58.59865 | 842 ft | 119 kts | 5° |
| 2026-05-05 02:11 | -34.46927 | -58.59627 | 775 ft | 111 kts | 18° |
| 2026-05-05 02:11 | -34.46308 | -58.59313 | 512 ft | 86 kts | 21° |
| 2026-05-05 02:11 | -34.45808 | -58.59001 | 320 ft | 73 kts | 35° |
| 2026-05-05 02:12 | -34.45469 | -58.58700 | 176 ft | 54 kts | 43° |
| 2026-05-05 02:12 | -34.45091 | -58.58250 | 48 ft | 20 kts | 64° |
| 2026-05-05 02:12 | -34.45042 | -58.58173 | 25 ft | 4 kts | 65° |
| 2026-05-05 02:13 | -34.45029 | -58.58138 | 26 ft | 5 kts | 88° |
| 2026-05-05 02:13 | -34.45029 | -58.58111 | 14 ft | 1 kts | 65° |
| 2026-05-05 02:13 | -34.45028 | -58.58110 | 13 ft | 0 kts | 66° |